Time,TemperatureF,DewpointF,PressureIn,WindDirection,WindDirectionDegrees,WindSpeedMPH,WindSpeedGustMPH,Humidity,HourlyPrecipIn,Conditions,Clouds,dailyrainin,SoftwareType,DateUTC
2015-03-26 00:02:00,34.4,32.6,30.08,West,281,0.0,0.0,93,0.00,,---,0.05,VWS V14.01,2015-03-26 04:02:00,
2015-03-26 00:07:00,34.4,32.6,30.07,West,281,0.0,0.0,93,0.00,,---,0.05,VWS V14.01,2015-03-26 04:07:00,
2015-03-26 00:12:00,34.4,32.9,30.07,West,281,0.0,0.0,94,0.00,,---,0.05,VWS V14.01,2015-03-26 04:12:00,
2015-03-26 00:17:00,34.6,33.0,30.07,West,280,0.0,0.0,94,0.00,,---,0.05,VWS V14.01,2015-03-26 04:17:00,
2015-03-26 00:22:00,34.7,33.2,30.07,West,280,0.0,0.0,94,0.00,,---,0.05,VWS V14.01,2015-03-26 04:22:00,
2015-03-26 00:23:00,34.7,33.2,30.03,West,281,0.0,0.0,94,0.01,,---,0.01,VWS V14.01,2015-03-26 04:23:00,
2015-03-26 00:25:00,34.7,33.2,30.03,West,281,0.0,0.0,94,0.01,,---,0.01,VWS V14.01,2015-03-26 04:25:00,
2015-03-26 00:26:00,34.7,33.2,30.03,West,280,0.0,0.0,94,0.01,,---,0.01,VWS V14.01,2015-03-26 04:26:00,
2015-03-26 00:27:00,34.6,33.0,30.06,West,281,0.0,0.0,94,0.00,,---,0.05,VWS V14.01,2015-03-26 04:27:00,
2015-03-26 00:28:00,34.7,33.2,30.02,West,280,0.0,0.0,94,0.01,,---,0.01,VWS V14.01,2015-03-26 04:28:00,
2015-03-26 00:29:00,34.7,33.2,30.02,West,281,0.0,0.0,94,0.01,,---,0.01,VWS V14.01,2015-03-26 04:29:00,
2015-03-26 00:30:00,34.6,33.0,30.02,West,281,0.0,0.0,94,0.01,,---,0.01,VWS V14.01,2015-03-26 04:30:00,
2015-03-26 00:31:00,34.6,33.0,30.02,West,281,0.0,0.0,94,0.01,,---,0.01,VWS V14.01,2015-03-26 04:31:00,
2015-03-26 00:32:00,34.6,33.0,30.06,West,281,0.0,0.0,94,0.00,,---,0.05,VWS V14.01,2015-03-26 04:32:00,
2015-03-26 00:37:00,34.6,33.0,30.06,West,281,0.0,0.0,94,0.00,,---,0.05,VWS V14.01,2015-03-26 04:37:00,
2015-03-26 00:42:00,34.5,33.0,30.05,West,281,0.0,0.0,94,0.00,,---,0.05,VWS V14.01,2015-03-26 04:42:00,
2015-03-26 00:47:00,34.4,32.9,30.05,West,280,0.0,0.0,94,0.00,,---,0.05,VWS V14.01,2015-03-26 04:47:00,
2015-03-26 00:52:00,34.5,33.0,30.05,West,280,0.0,0.0,94,0.00,,---,0.05,VWS V14.01,2015-03-26 04:52:00,
2015-03-26 00:57:00,34.4,32.9,30.04,West,281,0.0,0.0,94,0.00,,---,0.05,VWS V14.01,2015-03-26 04:57:00,
2015-03-26 01:02:00,34.4,32.9,30.04,West,281,0.0,0.0,94,0.00,,---,0.00,VWS V14.01,2015-03-26 05:02:00,
2015-03-26 01:07:00,34.4,32.9,30.03,West,280,0.0,0.0,94,0.00,,---,0.00,VWS V14.01,2015-03-26 05:07:00,
2015-03-26 01:12:00,34.4,32.9,30.03,West,281,0.0,0.0,94,0.01,,---,0.01,VWS V14.01,2015-03-26 05:12:00,
2015-03-26 01:17:00,34.5,33.0,30.03,West,280,0.0,0.0,94,0.01,,---,0.01,VWS V14.01,2015-03-26 05:17:00,
2015-03-26 01:22:00,34.7,33.2,30.03,West,280,0.0,0.0,94,0.01,,---,0.01,VWS V14.01,2015-03-26 05:22:00,
2015-03-26 01:27:00,34.7,33.2,30.02,West,281,0.0,0.0,94,0.01,,---,0.01,VWS V14.01,2015-03-26 05:27:00,
2015-03-26 01:32:00,34.7,33.2,30.02,West,281,0.0,0.0,94,0.01,,---,0.01,VWS V14.01,2015-03-26 05:32:00,
2015-03-26 01:37:00,34.7,33.2,30.02,West,280,0.0,0.0,94,0.01,,---,0.01,VWS V14.01,2015-03-26 05:37:00,
2015-03-26 01:42:00,34.7,33.2,30.01,West,280,0.0,0.0,94,0.01,,---,0.01,VWS V14.01,2015-03-26 05:42:00,
2015-03-26 01:47:00,34.7,33.2,30.01,West,281,0.0,0.0,94,0.01,,---,0.01,VWS V14.01,2015-03-26 05:47:00,
2015-03-26 01:52:00,34.7,33.2,30.00,West,281,0.0,0.0,94,0.01,,---,0.01,VWS V14.01,2015-03-26 05:52:00,
2015-03-26 01:55:00,35.8,34.5,29.96,North,355,0.0,0.0,95,0.00,,---,0.01,VWS V14.01,2015-03-26 05:55:00,
2015-03-26 01:56:00,35.8,34.5,29.96,North,355,0.0,0.0,95,0.00,,---,0.01,VWS V14.01,2015-03-26 05:56:00,
2015-03-26 01:57:00,34.8,33.5,30.00,West,280,0.0,0.0,95,0.01,,---,0.01,VWS V14.01,2015-03-26 05:57:00,
2015-03-26 01:58:00,35.9,34.6,29.97,North,355,0.0,0.0,95,0.01,,---,0.02,VWS V14.01,2015-03-26 05:58:00,
2015-03-26 01:59:00,35.9,34.6,29.96,North,355,0.0,0.0,95,0.01,,---,0.02,VWS V14.01,2015-03-26 05:59:00,
2015-03-26 02:00:00,36.0,34.7,29.96,North,355,2.0,2.0,95,0.01,,---,0.02,VWS V14.01,2015-03-26 06:00:00,
2015-03-26 02:01:00,35.9,34.6,29.96,North,355,0.0,0.0,95,0.01,,---,0.02,VWS V14.01,2015-03-26 06:01:00,
2015-03-26 02:02:00,34.9,33.6,30.00,West,281,0.0,0.0,95,0.01,,---,0.01,VWS V14.01,2015-03-26 06:02:00,
2015-03-26 02:07:00,35.0,33.7,29.99,West,281,0.0,0.0,95,0.01,,---,0.01,VWS V14.01,2015-03-26 06:07:00,
2015-03-26 02:12:00,35.3,34.0,29.99,West,281,0.0,0.0,95,0.00,,---,0.01,VWS V14.01,2015-03-26 06:12:00,
2015-03-26 02:17:00,35.4,34.1,29.99,West,281,0.0,0.0,95,0.00,,---,0.01,VWS V14.01,2015-03-26 06:17:00,
2015-03-26 02:22:00,35.4,34.1,29.98,West,281,0.0,0.0,95,0.00,,---,0.01,VWS V14.01,2015-03-26 06:22:00,
2015-03-26 02:27:00,35.5,34.2,29.98,West,280,0.0,0.0,95,0.00,,---,0.01,VWS V14.01,2015-03-26 06:27:00,
2015-03-26 02:32:00,35.5,34.2,29.98,West,281,0.0,0.0,95,0.00,,---,0.01,VWS V14.01,2015-03-26 06:32:00,
2015-03-26 02:37:00,35.4,34.1,29.98,NE,42,0.0,3.0,95,0.00,,---,0.01,VWS V14.01,2015-03-26 06:37:00,
2015-03-26 02:42:00,35.4,34.1,29.98,North,355,0.0,0.0,95,0.00,,---,0.01,VWS V14.01,2015-03-26 06:42:00,
2015-03-26 02:47:00,35.3,34.0,29.97,North,355,0.0,1.0,95,0.00,,---,0.01,VWS V14.01,2015-03-26 06:47:00,
2015-03-26 02:52:00,35.5,34.2,29.97,North,355,0.0,0.0,95,0.00,,---,0.01,VWS V14.01,2015-03-26 06:52:00,
2015-03-26 02:57:00,35.9,34.6,29.96,North,355,0.0,0.0,95,0.00,,---,0.01,VWS V14.01,2015-03-26 06:57:00,
2015-03-26 03:02:00,35.9,34.6,29.96,North,355,0.0,0.0,95,0.01,,---,0.02,VWS V14.01,2015-03-26 07:02:00,
2015-03-26 03:07:00,35.8,34.5,29.95,ESE,105,3.0,3.0,95,0.01,,---,0.02,VWS V14.01,2015-03-26 07:07:00,
2015-03-26 03:12:00,35.6,34.3,29.95,NW,317,0.0,0.0,95,0.01,,---,0.02,VWS V14.01,2015-03-26 07:12:00,
2015-03-26 03:17:00,35.7,34.4,29.95,East,81,0.0,0.0,95,0.01,,---,0.02,VWS V14.01,2015-03-26 07:17:00,
2015-03-26 03:22:00,35.8,34.8,29.95,NNW,342,0.0,0.0,96,0.01,,---,0.02,VWS V14.01,2015-03-26 07:22:00,
2015-03-26 03:27:00,35.9,34.6,29.94,NNW,342,0.0,0.0,95,0.01,,---,0.02,VWS V14.01,2015-03-26 07:27:00,
2015-03-26 03:32:00,35.8,34.5,29.94,NNW,342,0.0,0.0,95,0.01,,---,0.02,VWS V14.01,2015-03-26 07:32:00,
2015-03-26 03:37:00,35.9,34.9,29.93,NNW,342,0.0,0.0,96,0.01,,---,0.02,VWS V14.01,2015-03-26 07:37:00,
2015-03-26 03:42:00,36.1,35.1,29.93,NNW,342,0.0,0.0,96,0.01,,---,0.02,VWS V14.01,2015-03-26 07:42:00,
2015-03-26 03:47:00,36.2,35.2,29.93,NNW,342,0.0,0.0,96,0.01,,---,0.02,VWS V14.01,2015-03-26 07:47:00,
2015-03-26 03:52:00,36.4,35.4,29.93,NNW,342,0.0,0.0,96,0.01,,---,0.02,VWS V14.01,2015-03-26 07:52:00,
2015-03-26 03:57:00,36.4,35.4,29.93,NNW,342,0.0,0.0,96,0.01,,---,0.02,VWS V14.01,2015-03-26 07:57:00,
2015-03-26 04:02:00,36.4,35.4,29.93,NNW,342,0.0,0.0,96,0.00,,---,0.02,VWS V14.01,2015-03-26 08:02:00,
2015-03-26 04:07:00,36.4,35.4,29.92,NNW,342,0.0,0.0,96,0.00,,---,0.02,VWS V14.01,2015-03-26 08:07:00,
2015-03-26 04:12:00,36.4,35.4,29.92,NNW,342,0.0,0.0,96,0.00,,---,0.02,VWS V14.01,2015-03-26 08:12:00,
2015-03-26 04:17:00,36.2,35.2,29.91,NNW,342,0.0,0.0,96,0.00,,---,0.02,VWS V14.01,2015-03-26 08:17:00,
2015-03-26 04:22:00,36.2,35.2,29.91,NNW,342,0.0,0.0,96,0.00,,---,0.02,VWS V14.01,2015-03-26 08:22:00,
2015-03-26 04:27:00,36.2,35.2,29.91,NNW,342,0.0,0.0,96,0.00,,---,0.02,VWS V14.01,2015-03-26 08:27:00,
2015-03-26 04:32:00,36.1,35.1,29.90,NNW,342,0.0,0.0,96,0.00,,---,0.02,VWS V14.01,2015-03-26 08:32:00,
2015-03-26 04:37:00,36.1,35.1,29.90,NNW,342,0.0,0.0,96,0.00,,---,0.02,VWS V14.01,2015-03-26 08:37:00,
2015-03-26 04:39:00,36.7,35.7,29.89,NNW,342,0.0,0.0,96,0.00,,---,0.02,VWS V14.01,2015-03-26 08:39:00,
2015-03-26 04:40:00,36.7,35.7,29.89,NNW,342,0.0,0.0,96,0.00,,---,0.02,VWS V14.01,2015-03-26 08:40:00,
2015-03-26 04:41:00,36.6,35.6,29.89,NNW,342,0.0,0.0,96,0.00,,---,0.02,VWS V14.01,2015-03-26 08:41:00,
2015-03-26 04:42:00,36.1,35.1,29.90,NNW,342,0.0,0.0,96,0.00,,---,0.02,VWS V14.01,2015-03-26 08:42:00,
2015-03-26 04:43:00,36.6,35.6,29.89,NNW,342,0.0,0.0,96,0.00,,---,0.02,VWS V14.01,2015-03-26 08:43:00,
2015-03-26 04:47:00,36.2,35.2,29.90,NNW,342,0.0,0.0,96,0.00,,---,0.02,VWS V14.01,2015-03-26 08:47:00,
2015-03-26 04:52:00,36.3,35.3,29.90,NNW,342,0.0,0.0,96,0.00,,---,0.02,VWS V14.01,2015-03-26 08:52:00,
2015-03-26 04:57:00,36.7,35.7,29.90,NNW,342,0.0,0.0,96,0.00,,---,0.02,VWS V14.01,2015-03-26 08:57:00,
2015-03-26 05:02:00,36.9,35.9,29.90,NNW,342,0.0,0.0,96,0.00,,---,0.02,VWS V14.01,2015-03-26 09:02:00,
2015-03-26 05:07:00,36.9,35.9,29.90,NNW,342,0.0,0.0,96,0.00,,---,0.02,VWS V14.01,2015-03-26 09:07:00,
2015-03-26 05:12:00,36.9,35.9,29.90,NNW,342,0.0,0.0,96,0.00,,---,0.02,VWS V14.01,2015-03-26 09:12:00,
2015-03-26 05:17:00,36.8,35.8,29.89,NNW,342,0.0,0.0,96,0.00,,---,0.02,VWS V14.01,2015-03-26 09:17:00,
2015-03-26 05:22:00,36.7,35.7,29.90,NNW,342,0.0,0.0,96,0.00,,---,0.02,VWS V14.01,2015-03-26 09:22:00,
2015-03-26 05:27:00,36.6,35.6,29.89,NNW,342,0.0,0.0,96,0.00,,---,0.02,VWS V14.01,2015-03-26 09:27:00,
2015-03-26 05:32:00,36.5,35.5,29.89,NNW,342,0.0,0.0,96,0.00,,---,0.02,VWS V14.01,2015-03-26 09:32:00,
2015-03-26 05:37:00,36.6,35.6,29.89,NNW,342,0.0,0.0,96,0.00,,---,0.02,VWS V14.01,2015-03-26 09:37:00,
2015-03-26 05:38:00,36.1,35.1,29.88,NNW,342,0.0,0.0,96,0.00,,---,0.02,VWS V14.01,2015-03-26 09:38:00,
2015-03-26 05:39:00,36.1,35.1,29.88,NNW,342,0.0,0.0,96,0.00,,---,0.02,VWS V14.01,2015-03-26 09:39:00,
2015-03-26 05:40:00,36.1,35.1,29.88,NNW,342,0.0,0.0,96,0.00,,---,0.02,VWS V14.01,2015-03-26 09:40:00,
2015-03-26 05:41:00,36.6,35.6,29.89,NNW,342,0.0,0.0,96,0.00,,---,0.02,VWS V14.01,2015-03-26 09:41:00,
2015-03-26 05:42:00,36.1,35.1,29.88,NNW,342,0.0,0.0,96,0.00,,---,0.02,VWS V14.01,2015-03-26 09:42:00,
2015-03-26 05:46:00,36.6,35.6,29.89,NNW,342,0.0,0.0,96,0.00,,---,0.02,VWS V14.01,2015-03-26 09:46:00,
2015-03-26 05:51:00,36.5,35.5,29.89,NNW,342,0.0,0.0,96,0.00,,---,0.02,VWS V14.01,2015-03-26 09:51:00,
2015-03-26 05:56:00,36.5,35.5,29.89,NNW,342,0.0,0.0,96,0.00,,---,0.02,VWS V14.01,2015-03-26 09:56:00,
2015-03-26 06:01:00,36.6,35.6,29.89,NNW,342,0.0,0.0,96,0.00,,---,0.02,VWS V14.01,2015-03-26 10:01:00,
2015-03-26 06:06:00,36.6,35.6,29.89,NNW,342,0.0,0.0,96,0.00,,---,0.02,VWS V14.01,2015-03-26 10:06:00,
2015-03-26 06:11:00,36.5,35.5,29.89,NNW,342,0.0,0.0,96,0.00,,---,0.02,VWS V14.01,2015-03-26 10:11:00,
2015-03-26 06:16:00,36.4,35.4,29.88,NNW,342,0.0,0.0,96,0.00,,---,0.02,VWS V14.01,2015-03-26 10:16:00,
2015-03-26 06:21:00,36.2,35.2,29.88,NNW,342,0.0,0.0,96,0.00,,---,0.02,VWS V14.01,2015-03-26 10:21:00,
2015-03-26 06:26:00,36.1,35.1,29.88,NNW,342,0.0,0.0,96,0.00,,---,0.02,VWS V14.01,2015-03-26 10:26:00,
2015-03-26 06:31:00,35.9,34.9,29.88,NNW,342,0.0,0.0,96,0.00,,---,0.02,VWS V14.01,2015-03-26 10:31:00,
2015-03-26 06:36:00,36.0,35.0,29.88,NNW,342,0.0,0.0,96,0.00,,---,0.02,VWS V14.01,2015-03-26 10:36:00,
2015-03-26 06:41:00,36.1,35.1,29.88,NNW,342,0.0,0.0,96,0.00,,---,0.02,VWS V14.01,2015-03-26 10:41:00,
2015-03-26 06:46:00,36.1,35.1,29.88,NNW,342,0.0,0.0,96,0.00,,---,0.02,VWS V14.01,2015-03-26 10:46:00,
2015-03-26 06:51:00,36.1,35.1,29.88,NNW,342,0.0,0.0,96,0.00,,---,0.02,VWS V14.01,2015-03-26 10:51:00,
2015-03-26 06:56:00,36.1,35.1,29.88,NNW,342,0.0,0.0,96,0.00,,---,0.02,VWS V14.01,2015-03-26 10:56:00,
2015-03-26 07:01:00,36.1,35.1,29.89,NNW,342,0.0,0.0,96,0.00,,---,0.02,VWS V14.01,2015-03-26 11:01:00,
2015-03-26 07:06:00,36.1,35.1,29.88,NNW,342,0.0,0.0,96,0.00,,---,0.02,VWS V14.01,2015-03-26 11:06:00,
2015-03-26 07:11:00,36.2,35.2,29.88,NNW,342,0.0,0.0,96,0.00,,---,0.02,VWS V14.01,2015-03-26 11:11:00,
2015-03-26 07:16:00,36.3,35.3,29.88,NNW,342,0.0,0.0,96,0.00,,---,0.02,VWS V14.01,2015-03-26 11:16:00,
2015-03-26 07:21:00,36.3,35.3,29.88,NNW,342,0.0,0.0,96,0.00,,---,0.02,VWS V14.01,2015-03-26 11:21:00,
2015-03-26 07:26:00,36.3,35.3,29.87,NNW,342,0.0,0.0,96,0.00,,---,0.02,VWS V14.01,2015-03-26 11:26:00,
2015-03-26 07:31:00,36.2,35.2,29.87,NNW,342,0.0,0.0,96,0.00,,---,0.02,VWS V14.01,2015-03-26 11:31:00,
2015-03-26 07:36:00,36.3,35.3,29.87,NNW,342,0.0,0.0,96,0.00,,---,0.02,VWS V14.01,2015-03-26 11:36:00,
2015-03-26 07:41:00,36.5,35.7,29.86,NNW,342,0.0,0.0,97,0.00,,---,0.02,VWS V14.01,2015-03-26 11:41:00,
2015-03-26 07:46:00,36.6,35.6,29.86,NNW,342,0.0,0.0,96,0.00,,---,0.02,VWS V14.01,2015-03-26 11:46:00,
2015-03-26 07:51:00,36.8,35.8,29.86,NNW,342,0.0,0.0,96,0.00,,---,0.02,VWS V14.01,2015-03-26 11:51:00,
2015-03-26 07:56:00,37.1,36.1,29.87,NNW,342,0.0,0.0,96,0.00,,---,0.02,VWS V14.01,2015-03-26 11:56:00,
2015-03-26 08:01:00,37.3,36.5,29.86,NNW,342,0.0,0.0,97,0.00,,---,0.02,VWS V14.01,2015-03-26 12:01:00,
2015-03-26 08:06:00,37.4,36.6,29.86,NNW,342,0.0,0.0,97,0.00,,---,0.02,VWS V14.01,2015-03-26 12:06:00,
2015-03-26 08:11:00,37.5,36.7,29.86,NNW,342,0.0,0.0,97,0.00,,---,0.02,VWS V14.01,2015-03-26 12:11:00,
2015-03-26 08:16:00,37.6,36.8,29.86,NNW,342,0.0,0.0,97,0.00,,---,0.02,VWS V14.01,2015-03-26 12:16:00,
2015-03-26 08:21:00,37.8,37.0,29.86,NNW,342,0.0,0.0,97,0.00,,---,0.02,VWS V14.01,2015-03-26 12:21:00,
2015-03-26 08:26:00,38.0,37.2,29.87,NNW,342,0.0,0.0,97,0.00,,---,0.02,VWS V14.01,2015-03-26 12:26:00,
2015-03-26 08:31:00,38.5,37.7,29.87,NNW,342,0.0,0.0,97,0.00,,---,0.02,VWS V14.01,2015-03-26 12:31:00,
2015-03-26 08:36:00,38.8,38.0,29.87,NNW,342,0.0,0.0,97,0.00,,---,0.02,VWS V14.01,2015-03-26 12:36:00,
2015-03-26 08:41:00,39.3,38.5,29.87,NNW,342,0.0,0.0,97,0.00,,---,0.02,VWS V14.01,2015-03-26 12:41:00,
2015-03-26 08:46:00,39.8,39.0,29.87,NNW,342,0.0,0.0,97,0.00,,---,0.02,VWS V14.01,2015-03-26 12:46:00,
2015-03-26 08:51:00,40.0,39.2,29.87,NNW,342,0.0,0.0,97,0.00,,---,0.02,VWS V14.01,2015-03-26 12:51:00,
2015-03-26 08:53:00,43.7,42.9,29.85,South,183,0.0,0.0,97,0.00,,---,0.02,VWS V14.01,2015-03-26 12:53:00,
2015-03-26 08:54:00,43.8,43.0,29.85,West,269,0.0,1.0,97,0.00,,---,0.02,VWS V14.01,2015-03-26 12:54:00,
2015-03-26 08:55:00,43.9,43.1,29.85,West,269,0.0,0.0,97,0.00,,---,0.02,VWS V14.01,2015-03-26 12:55:00,
2015-03-26 08:56:00,40.3,39.5,29.87,NNW,342,0.0,0.0,97,0.00,,---,0.02,VWS V14.01,2015-03-26 12:56:00,
2015-03-26 08:58:00,44.1,43.3,29.85,West,269,0.0,0.0,97,0.00,,---,0.02,VWS V14.01,2015-03-26 12:58:00,
2015-03-26 08:59:00,44.1,43.3,29.85,West,269,0.0,0.0,97,0.00,,---,0.02,VWS V14.01,2015-03-26 12:59:00,
2015-03-26 09:00:00,44.1,43.3,29.85,West,269,0.0,0.0,97,0.00,,---,0.02,VWS V14.01,2015-03-26 13:00:00,
2015-03-26 09:01:00,40.7,39.9,29.87,NNW,342,0.0,0.0,97,0.00,,---,0.02,VWS V14.01,2015-03-26 13:01:00,
2015-03-26 09:06:00,41.1,40.3,29.86,NNW,342,0.0,1.0,97,0.00,,---,0.02,VWS V14.01,2015-03-26 13:06:00,
2015-03-26 09:11:00,41.9,41.1,29.86,NNW,342,0.0,1.0,97,0.00,,---,0.02,VWS V14.01,2015-03-26 13:11:00,
2015-03-26 09:16:00,42.3,41.5,29.86,NNW,343,1.0,1.0,97,0.00,,---,0.02,VWS V14.01,2015-03-26 13:16:00,
2015-03-26 09:21:00,42.7,41.9,29.86,NNW,343,0.0,0.0,97,0.00,,---,0.02,VWS V14.01,2015-03-26 13:21:00,
2015-03-26 09:26:00,42.8,42.0,29.85,NNW,343,0.0,0.0,97,0.00,,---,0.02,VWS V14.01,2015-03-26 13:26:00,
2015-03-26 09:31:00,43.1,42.3,29.85,NNW,342,0.0,0.0,97,0.00,,---,0.02,VWS V14.01,2015-03-26 13:31:00,
2015-03-26 09:36:00,43.0,42.2,29.86,NNW,343,0.0,0.0,97,0.00,,---,0.02,VWS V14.01,2015-03-26 13:36:00,
2015-03-26 09:41:00,43.4,42.6,29.86,SSE,161,3.0,4.0,97,0.00,,---,0.02,VWS V14.01,2015-03-26 13:41:00,
2015-03-26 09:46:00,43.7,42.9,29.86,NW,313,1.0,2.0,97,0.00,,---,0.02,VWS V14.01,2015-03-26 13:46:00,
2015-03-26 09:51:00,43.7,42.9,29.85,NW,313,0.0,0.0,97,0.00,,---,0.02,VWS V14.01,2015-03-26 13:51:00,
2015-03-26 09:56:00,43.9,43.1,29.85,West,269,0.0,0.0,97,0.00,,---,0.02,VWS V14.01,2015-03-26 13:56:00,
2015-03-26 10:01:00,44.1,43.3,29.85,West,269,0.0,0.0,97,0.00,,---,0.02,VWS V14.01,2015-03-26 14:01:00,
2015-03-26 10:06:00,44.2,43.4,29.85,NNW,344,0.0,0.0,97,0.00,,---,0.02,VWS V14.01,2015-03-26 14:06:00,
2015-03-26 10:11:00,44.5,43.7,29.86,WSW,252,1.0,1.0,97,0.00,,---,0.02,VWS V14.01,2015-03-26 14:11:00,
2015-03-26 10:16:00,44.6,43.8,29.85,NNW,345,0.0,0.0,97,0.00,,---,0.02,VWS V14.01,2015-03-26 14:16:00,
2015-03-26 10:21:00,44.7,43.9,29.85,WSW,250,1.0,1.0,97,0.00,,---,0.02,VWS V14.01,2015-03-26 14:21:00,
2015-03-26 10:26:00,45.0,44.2,29.85,WSW,250,0.0,0.0,97,0.00,,---,0.02,VWS V14.01,2015-03-26 14:26:00,
2015-03-26 10:31:00,45.3,44.5,29.84,NNW,329,0.0,0.0,97,0.00,,---,0.02,VWS V14.01,2015-03-26 14:31:00,
2015-03-26 10:36:00,45.8,44.7,29.83,NNW,329,0.0,0.0,96,0.00,,---,0.02,VWS V14.01,2015-03-26 14:36:00,
2015-03-26 10:41:00,45.8,44.5,29.83,NNE,19,0.0,0.0,95,0.00,,---,0.02,VWS V14.01,2015-03-26 14:41:00,
2015-03-26 10:46:00,46.1,44.5,29.83,ESE,107,5.0,5.0,94,0.00,,---,0.02,VWS V14.01,2015-03-26 14:46:00,
2015-03-26 10:51:00,46.2,44.3,29.83,ESE,121,0.0,0.0,93,0.00,,---,0.02,VWS V14.01,2015-03-26 14:51:00,
2015-03-26 10:56:00,46.7,44.8,29.83,East,95,4.0,5.0,93,0.00,,---,0.02,VWS V14.01,2015-03-26 14:56:00,
2015-03-26 11:01:00,46.7,44.2,29.82,WNW,299,2.0,6.0,91,0.00,,---,0.02,VWS V14.01,2015-03-26 15:01:00,
2015-03-26 11:06:00,46.7,43.9,29.82,NW,307,0.0,0.0,90,0.00,,---,0.02,VWS V14.01,2015-03-26 15:06:00,
2015-03-26 11:11:00,46.7,43.9,29.82,West,273,0.0,0.0,90,0.00,,---,0.02,VWS V14.01,2015-03-26 15:11:00,
2015-03-26 11:16:00,46.9,43.8,29.82,NNW,330,2.0,2.0,89,0.00,,---,0.02,VWS V14.01,2015-03-26 15:16:00,
2015-03-26 11:21:00,47.2,43.8,29.81,WNW,302,1.0,1.0,88,0.00,,---,0.02,VWS V14.01,2015-03-26 15:21:00,
2015-03-26 11:26:00,47.3,43.9,29.81,North,360,0.0,1.0,88,0.00,,---,0.02,VWS V14.01,2015-03-26 15:26:00,
2015-03-26 11:31:00,47.3,43.6,29.80,West,271,1.0,1.0,87,0.00,,---,0.02,VWS V14.01,2015-03-26 15:31:00,
2015-03-26 11:36:00,47.4,43.7,29.80,WNW,287,0.0,1.0,87,0.00,,---,0.02,VWS V14.01,2015-03-26 15:36:00,
2015-03-26 11:41:00,47.4,43.4,29.79,ENE,75,1.0,1.0,86,0.00,,---,0.02,VWS V14.01,2015-03-26 15:41:00,
2015-03-26 11:46:00,47.2,43.2,29.79,NNW,348,1.0,4.0,86,0.00,,---,0.02,VWS V14.01,2015-03-26 15:46:00,
2015-03-26 11:51:00,47.1,43.4,29.78,NNE,24,0.0,3.0,87,0.00,,---,0.02,VWS V14.01,2015-03-26 15:51:00,
2015-03-26 11:56:00,47.3,43.6,29.77,NE,54,1.0,2.0,87,0.00,,---,0.02,VWS V14.01,2015-03-26 15:56:00,
2015-03-26 12:01:00,47.8,43.8,29.76,ENE,64,0.0,2.0,86,0.00,,---,0.02,VWS V14.01,2015-03-26 16:01:00,
2015-03-26 12:06:00,48.1,44.1,29.76,WNW,286,0.0,2.0,86,0.00,,---,0.02,VWS V14.01,2015-03-26 16:06:00,
2015-03-26 12:11:00,48.3,44.0,29.75,WNW,284,0.0,0.0,85,0.00,,---,0.02,VWS V14.01,2015-03-26 16:11:00,
2015-03-26 12:16:00,48.5,43.9,29.74,NW,311,0.0,0.0,84,0.00,,---,0.02,VWS V14.01,2015-03-26 16:16:00,
2015-03-26 12:21:00,48.7,44.1,29.74,East,87,4.0,4.0,84,0.00,,---,0.02,VWS V14.01,2015-03-26 16:21:00,
2015-03-26 12:24:00,51.4,45.1,29.69,ENE,72,0.0,1.0,79,0.00,,---,0.02,VWS V14.01,2015-03-26 16:24:00,
2015-03-26 12:25:00,51.4,45.1,29.69,ENE,72,0.0,0.0,79,0.00,,---,0.02,VWS V14.01,2015-03-26 16:25:00,
2015-03-26 12:26:00,49.0,44.4,29.74,NNW,347,0.0,2.0,84,0.00,,---,0.02,VWS V14.01,2015-03-26 16:26:00,
2015-03-26 12:27:00,51.5,45.2,29.69,ENE,72,0.0,0.0,79,0.00,,---,0.02,VWS V14.01,2015-03-26 16:27:00,
2015-03-26 12:28:00,51.6,45.3,29.69,ENE,72,0.0,0.0,79,0.00,,---,0.02,VWS V14.01,2015-03-26 16:28:00,
2015-03-26 12:29:00,51.7,45.4,29.69,West,278,0.0,0.0,79,0.00,,---,0.02,VWS V14.01,2015-03-26 16:29:00,
2015-03-26 12:30:00,51.9,45.6,29.69,West,277,0.0,0.0,79,0.00,,---,0.02,VWS V14.01,2015-03-26 16:30:00,
2015-03-26 12:31:00,49.3,44.7,29.74,NNW,347,0.0,0.0,84,0.00,,---,0.02,VWS V14.01,2015-03-26 16:31:00,
2015-03-26 12:36:00,49.7,44.4,29.74,NNW,346,0.0,0.0,82,0.00,,---,0.02,VWS V14.01,2015-03-26 16:36:00,
2015-03-26 12:41:00,49.7,44.4,29.73,NW,311,0.0,0.0,82,0.00,,---,0.02,VWS V14.01,2015-03-26 16:41:00,
2015-03-26 12:46:00,49.7,44.1,29.73,East,94,2.0,2.0,81,0.00,,---,0.02,VWS V14.01,2015-03-26 16:46:00,
2015-03-26 12:51:00,50.0,44.4,29.73,ENE,57,0.0,2.0,81,0.00,,---,0.02,VWS V14.01,2015-03-26 16:51:00,
2015-03-26 12:56:00,50.4,44.8,29.72,ENE,74,0.0,0.0,81,0.00,,---,0.02,VWS V14.01,2015-03-26 16:56:00,
2015-03-26 13:01:00,50.4,44.5,29.72,East,101,0.0,0.0,80,0.00,,---,0.02,VWS V14.01,2015-03-26 17:01:00,
2015-03-26 13:06:00,50.5,44.2,29.72,East,83,2.0,6.0,79,0.00,,---,0.02,VWS V14.01,2015-03-26 17:06:00,
2015-03-26 13:07:00,50.4,44.8,29.67,WNW,301,1.0,1.0,81,0.00,,---,0.02,VWS V14.01,2015-03-26 17:07:00,
2015-03-26 13:08:00,50.4,45.1,29.67,WSW,250,3.0,3.0,82,0.00,,---,0.02,VWS V14.01,2015-03-26 17:08:00,
2015-03-26 13:09:00,50.4,45.1,29.67,West,261,2.0,3.0,82,0.00,,---,0.02,VWS V14.01,2015-03-26 17:09:00,
2015-03-26 13:10:00,50.2,44.9,29.67,WSW,238,1.0,1.0,82,0.00,,---,0.02,VWS V14.01,2015-03-26 17:10:00,
2015-03-26 13:11:00,50.6,44.7,29.71,NNW,340,0.0,0.0,80,0.00,,---,0.02,VWS V14.01,2015-03-26 17:11:00,
2015-03-26 13:12:00,50.1,45.2,29.66,East,84,2.0,2.0,83,0.00,,---,0.02,VWS V14.01,2015-03-26 17:12:00,
2015-03-26 13:16:00,51.0,45.1,29.71,West,266,0.0,2.0,80,0.00,,---,0.02,VWS V14.01,2015-03-26 17:16:00,
2015-03-26 13:21:00,51.3,45.0,29.70,West,280,0.0,1.0,79,0.00,,---,0.02,VWS V14.01,2015-03-26 17:21:00,
2015-03-26 13:22:00,49.5,45.2,29.65,East,90,0.0,5.0,85,0.00,,---,0.02,VWS V14.01,2015-03-26 17:22:00,
2015-03-26 13:23:00,49.5,45.2,29.65,East,90,0.0,0.0,85,0.00,,---,0.02,VWS V14.01,2015-03-26 17:23:00,
2015-03-26 13:24:00,49.4,45.1,29.65,East,90,0.0,0.0,85,0.00,,---,0.02,VWS V14.01,2015-03-26 17:24:00,
2015-03-26 13:25:00,49.3,45.0,29.65,East,90,0.0,2.0,85,0.00,,---,0.02,VWS V14.01,2015-03-26 17:25:00,
2015-03-26 13:26:00,51.4,45.1,29.69,ENE,72,0.0,0.0,79,0.00,,---,0.02,VWS V14.01,2015-03-26 17:26:00,
2015-03-26 13:31:00,51.9,45.6,29.69,West,278,2.0,2.0,79,0.00,,---,0.02,VWS V14.01,2015-03-26 17:31:00,
2015-03-26 13:36:00,52.3,45.7,29.68,SE,135,1.0,1.0,78,0.00,,---,0.02,VWS V14.01,2015-03-26 17:36:00,
2015-03-26 13:40:00,48.8,45.7,29.65,North,5,0.0,0.0,89,0.01,,---,0.03,VWS V14.01,2015-03-26 17:40:00,
2015-03-26 13:41:00,52.2,45.2,29.68,ESE,103,1.0,1.0,77,0.00,,---,0.02,VWS V14.01,2015-03-26 17:41:00,
2015-03-26 13:42:00,48.8,46.0,29.64,North,360,0.0,0.0,90,0.01,,---,0.03,VWS V14.01,2015-03-26 17:42:00,
2015-03-26 13:43:00,48.8,46.0,29.64,North,5,0.0,0.0,90,0.01,,---,0.03,VWS V14.01,2015-03-26 17:43:00,
2015-03-26 13:44:00,48.7,45.9,29.65,North,360,0.0,0.0,90,0.01,,---,0.03,VWS V14.01,2015-03-26 17:44:00,
2015-03-26 13:45:00,48.7,45.9,29.64,NNE,26,1.0,1.0,90,0.01,,---,0.03,VWS V14.01,2015-03-26 17:45:00,
2015-03-26 13:46:00,52.0,45.0,29.68,ESE,103,0.0,0.0,77,0.00,,---,0.02,VWS V14.01,2015-03-26 17:46:00,
2015-03-26 13:47:00,48.6,46.1,29.64,NNE,27,0.0,1.0,91,0.01,,---,0.03,VWS V14.01,2015-03-26 17:47:00,
2015-03-26 13:48:00,48.6,46.1,29.65,NNE,27,0.0,0.0,91,0.01,,---,0.03,VWS V14.01,2015-03-26 17:48:00,
2015-03-26 13:49:00,48.5,46.0,29.65,NNE,26,0.0,0.0,91,0.01,,---,0.03,VWS V14.01,2015-03-26 17:49:00,
2015-03-26 13:50:00,48.5,46.0,29.65,NNE,27,0.0,0.0,91,0.01,,---,0.03,VWS V14.01,2015-03-26 17:50:00,
2015-03-26 13:51:00,51.6,45.0,29.68,NW,317,0.0,0.0,78,0.00,,---,0.02,VWS V14.01,2015-03-26 17:51:00,
2015-03-26 13:56:00,51.3,45.0,29.67,NW,321,0.0,0.0,79,0.00,,---,0.02,VWS V14.01,2015-03-26 17:56:00,
2015-03-26 14:01:00,50.9,45.0,29.67,NNE,13,2.0,3.0,80,0.00,,---,0.02,VWS V14.01,2015-03-26 18:01:00,
2015-03-26 14:06:00,50.6,45.0,29.67,NE,34,2.0,2.0,81,0.00,,---,0.02,VWS V14.01,2015-03-26 18:06:00,
2015-03-26 14:11:00,50.2,44.9,29.67,West,262,1.0,1.0,82,0.00,,---,0.02,VWS V14.01,2015-03-26 18:11:00,
2015-03-26 14:16:00,49.9,45.3,29.66,ENE,69,0.0,0.0,84,0.00,,---,0.02,VWS V14.01,2015-03-26 18:16:00,
2015-03-26 14:21:00,49.5,45.2,29.66,ENE,69,0.0,1.0,85,0.00,,---,0.02,VWS V14.01,2015-03-26 18:21:00,
2015-03-26 14:26:00,49.3,45.0,29.65,East,90,0.0,1.0,85,0.00,,---,0.02,VWS V14.01,2015-03-26 18:26:00,
2015-03-26 14:31:00,49.0,45.3,29.65,North,360,0.0,2.0,87,0.01,,---,0.03,VWS V14.01,2015-03-26 18:31:00,
2015-03-26 14:36:00,49.0,45.6,29.65,North,360,0.0,0.0,88,0.01,,---,0.03,VWS V14.01,2015-03-26 18:36:00,
2015-03-26 14:41:00,48.8,45.7,29.65,North,5,0.0,0.0,89,0.01,,---,0.03,VWS V14.01,2015-03-26 18:41:00,
2015-03-26 14:46:00,48.7,45.9,29.64,NNE,27,0.0,1.0,90,0.01,,---,0.03,VWS V14.01,2015-03-26 18:46:00,
2015-03-26 14:51:00,48.5,46.0,29.65,NNE,27,0.0,0.0,91,0.01,,---,0.03,VWS V14.01,2015-03-26 18:51:00,
2015-03-26 14:55:00,48.3,45.8,29.65,NNE,15,0.0,0.0,91,0.01,,---,0.03,VWS V14.01,2015-03-26 18:55:00,
2015-03-26 15:00:00,48.0,45.5,29.64,North,355,0.0,1.0,91,0.01,,---,0.03,VWS V14.01,2015-03-26 19:00:00,
2015-03-26 15:05:00,47.7,45.5,29.64,North,355,0.0,0.0,92,0.01,,---,0.03,VWS V14.01,2015-03-26 19:05:00,
2015-03-26 15:10:00,47.4,45.2,29.64,North,355,0.0,0.0,92,0.01,,---,0.03,VWS V14.01,2015-03-26 19:10:00,
2015-03-26 15:15:00,47.3,45.4,29.64,NNW,338,0.0,1.0,93,0.01,,---,0.03,VWS V14.01,2015-03-26 19:15:00,
2015-03-26 15:20:00,47.2,45.3,29.64,NNW,338,0.0,0.0,93,0.01,,---,0.03,VWS V14.01,2015-03-26 19:20:00,
2015-03-26 15:25:00,46.9,45.0,29.64,NNW,338,0.0,1.0,93,0.01,,---,0.03,VWS V14.01,2015-03-26 19:25:00,
2015-03-26 15:30:00,46.5,44.6,29.65,NNW,338,0.0,0.0,93,0.01,,---,0.04,VWS V14.01,2015-03-26 19:30:00,
2015-03-26 15:35:00,46.4,44.8,29.65,NNW,338,0.0,0.0,94,0.01,,---,0.04,VWS V14.01,2015-03-26 19:35:00,
2015-03-26 15:40:00,46.1,44.2,29.64,NNW,338,0.0,0.0,93,0.01,,---,0.04,VWS V14.01,2015-03-26 19:40:00,
2015-03-26 15:45:00,46.1,44.5,29.64,NNW,338,0.0,0.0,94,0.01,,---,0.04,VWS V14.01,2015-03-26 19:45:00,
2015-03-26 15:50:00,46.2,44.6,29.64,NNW,338,0.0,0.0,94,0.01,,---,0.04,VWS V14.01,2015-03-26 19:50:00,
2015-03-26 15:55:00,46.1,44.5,29.63,NNW,338,0.0,0.0,94,0.01,,---,0.04,VWS V14.01,2015-03-26 19:55:00,
2015-03-26 16:00:00,45.8,44.2,29.63,NNW,338,0.0,0.0,94,0.01,,---,0.04,VWS V14.01,2015-03-26 20:00:00,
2015-03-26 16:05:00,45.6,44.0,29.61,NNW,338,0.0,0.0,94,0.01,,---,0.04,VWS V14.01,2015-03-26 20:05:00,
2015-03-26 16:10:00,45.6,44.2,29.61,NNW,338,0.0,0.0,95,0.01,,---,0.04,VWS V14.01,2015-03-26 20:10:00,
2015-03-26 16:15:00,45.5,44.2,29.61,NNW,338,0.0,0.0,95,0.01,,---,0.04,VWS V14.01,2015-03-26 20:15:00,
2015-03-26 16:20:00,45.5,44.2,29.61,NNW,338,0.0,0.0,95,0.01,,---,0.04,VWS V14.01,2015-03-26 20:20:00,
2015-03-26 16:25:00,45.5,44.2,29.60,NNW,338,0.0,0.0,95,0.02,,---,0.05,VWS V14.01,2015-03-26 20:25:00,
2015-03-26 16:30:00,45.2,43.9,29.60,NNW,338,0.0,0.0,95,0.03,,---,0.06,VWS V14.01,2015-03-26 20:30:00,
2015-03-26 16:35:00,45.1,43.8,29.60,NNW,338,0.0,0.0,95,0.05,,---,0.09,VWS V14.01,2015-03-26 20:35:00,
2015-03-26 16:40:00,45.0,43.7,29.60,NNW,338,0.0,0.0,95,0.07,,---,0.11,VWS V14.01,2015-03-26 20:40:00,
2015-03-26 16:45:00,44.7,43.4,29.60,NNW,338,0.0,0.0,95,0.08,,---,0.12,VWS V14.01,2015-03-26 20:45:00,
2015-03-26 16:50:00,45.0,43.9,29.57,NNW,338,0.0,0.0,96,0.12,,---,0.16,VWS V14.01,2015-03-26 20:50:00,
2015-03-26 16:55:00,44.8,43.5,29.58,NNW,338,1.0,1.0,95,0.12,,---,0.16,VWS V14.01,2015-03-26 20:55:00,
2015-03-26 17:00:00,45.0,43.9,29.57,WNW,289,0.0,1.0,96,0.13,,---,0.17,VWS V14.01,2015-03-26 21:00:00,
2015-03-26 17:05:00,45.3,44.2,29.58,WNW,288,0.0,0.0,96,0.14,,---,0.18,VWS V14.01,2015-03-26 21:05:00,
2015-03-26 17:10:00,45.2,44.1,29.58,WNW,288,0.0,0.0,96,0.16,,---,0.20,VWS V14.01,2015-03-26 21:10:00,
2015-03-26 17:15:00,44.9,43.8,29.59,WNW,289,1.0,2.0,96,0.16,,---,0.20,VWS V14.01,2015-03-26 21:15:00,
2015-03-26 17:20:00,44.2,43.1,29.60,WNW,289,0.0,0.0,96,0.20,,---,0.24,VWS V14.01,2015-03-26 21:20:00,
2015-03-26 17:25:00,44.0,42.9,29.59,WNW,288,0.0,0.0,96,0.19,,---,0.24,VWS V14.01,2015-03-26 21:25:00,
2015-03-26 17:30:00,43.9,42.8,29.59,WNW,288,0.0,1.0,96,0.20,,---,0.26,VWS V14.01,2015-03-26 21:30:00,
2015-03-26 17:35:00,43.9,42.8,29.58,WNW,288,0.0,0.0,96,0.18,,---,0.26,VWS V14.01,2015-03-26 21:35:00,
2015-03-26 17:37:00,42.7,41.6,29.57,WNW,288,0.0,0.0,96,0.01,,---,0.27,VWS V14.01,2015-03-26 21:37:00,
2015-03-26 17:38:00,42.7,41.6,29.57,WNW,288,0.0,0.0,96,0.01,,---,0.27,VWS V14.01,2015-03-26 21:38:00,
2015-03-26 17:39:00,42.7,41.6,29.57,WNW,289,0.0,0.0,96,0.01,,---,0.27,VWS V14.01,2015-03-26 21:39:00,
2015-03-26 17:40:00,43.8,42.7,29.58,WNW,289,0.0,0.0,96,0.16,,---,0.26,VWS V14.01,2015-03-26 21:40:00,
2015-03-26 17:41:00,42.7,41.6,29.57,WNW,288,0.0,0.0,96,0.01,,---,0.27,VWS V14.01,2015-03-26 21:41:00,
2015-03-26 17:45:00,43.5,42.4,29.58,WNW,289,0.0,0.0,96,0.15,,---,0.27,VWS V14.01,2015-03-26 21:45:00,
2015-03-26 17:49:00,42.3,41.2,29.56,WNW,288,0.0,0.0,96,0.00,,---,0.27,VWS V14.01,2015-03-26 21:49:00,
2015-03-26 17:50:00,43.4,42.3,29.58,WNW,289,0.0,0.0,96,0.11,,---,0.27,VWS V14.01,2015-03-26 21:50:00,
2015-03-26 17:51:00,42.3,41.2,29.57,WNW,289,0.0,0.0,96,0.00,,---,0.27,VWS V14.01,2015-03-26 21:51:00,
2015-03-26 17:52:00,42.3,41.2,29.57,WNW,288,0.0,0.0,96,0.00,,---,0.27,VWS V14.01,2015-03-26 21:52:00,
2015-03-26 17:53:00,42.4,41.3,29.57,WNW,289,0.0,0.0,96,0.00,,---,0.27,VWS V14.01,2015-03-26 21:53:00,
2015-03-26 17:54:00,42.4,41.3,29.57,WNW,288,0.0,0.0,96,0.00,,---,0.27,VWS V14.01,2015-03-26 21:54:00,
2015-03-26 17:55:00,43.4,42.3,29.58,WNW,288,0.0,0.0,96,0.11,,---,0.27,VWS V14.01,2015-03-26 21:55:00,
2015-03-26 18:00:00,43.3,42.2,29.57,WNW,288,0.0,0.0,96,0.11,,---,0.27,VWS V14.01,2015-03-26 22:00:00,
2015-03-26 18:05:00,43.1,42.0,29.57,WNW,289,0.0,0.0,96,0.09,,---,0.27,VWS V14.01,2015-03-26 22:05:00,
2015-03-26 18:10:00,43.1,42.0,29.57,WNW,289,0.0,0.0,96,0.07,,---,0.27,VWS V14.01,2015-03-26 22:10:00,
2015-03-26 18:15:00,42.9,41.8,29.57,WNW,289,0.0,0.0,96,0.07,,---,0.27,VWS V14.01,2015-03-26 22:15:00,
2015-03-26 18:20:00,43.1,42.0,29.57,WNW,289,0.0,0.0,96,0.04,,---,0.27,VWS V14.01,2015-03-26 22:20:00,
2015-03-26 18:25:00,43.0,41.9,29.57,WNW,288,0.0,0.0,96,0.03,,---,0.27,VWS V14.01,2015-03-26 22:25:00,
2015-03-26 18:30:00,42.8,41.7,29.57,WNW,288,0.0,0.0,96,0.02,,---,0.27,VWS V14.01,2015-03-26 22:30:00,
2015-03-26 18:31:00,42.0,41.2,29.56,WNW,289,0.0,0.0,97,0.01,,---,0.28,VWS V14.01,2015-03-26 22:31:00,
2015-03-26 18:32:00,42.0,41.2,29.56,WNW,289,0.0,0.0,97,0.01,,---,0.28,VWS V14.01,2015-03-26 22:32:00,
2015-03-26 18:33:00,42.0,41.2,29.56,WNW,289,0.0,0.0,97,0.01,,---,0.28,VWS V14.01,2015-03-26 22:33:00,
2015-03-26 18:34:00,42.0,41.2,29.56,WNW,289,0.0,0.0,97,0.01,,---,0.28,VWS V14.01,2015-03-26 22:34:00,
2015-03-26 18:35:00,42.7,41.6,29.57,WNW,289,0.0,0.0,96,0.01,,---,0.27,VWS V14.01,2015-03-26 22:35:00,
2015-03-26 18:36:00,42.0,41.2,29.56,WNW,288,0.0,0.0,97,0.01,,---,0.28,VWS V14.01,2015-03-26 22:36:00,
2015-03-26 18:40:00,42.7,41.6,29.57,WNW,289,0.0,0.0,96,0.01,,---,0.27,VWS V14.01,2015-03-26 22:40:00,
2015-03-26 18:45:00,42.5,41.4,29.57,WNW,288,0.0,0.0,96,0.00,,---,0.27,VWS V14.01,2015-03-26 22:45:00,
2015-03-26 18:50:00,42.3,41.2,29.56,WNW,289,0.0,0.0,96,0.00,,---,0.27,VWS V14.01,2015-03-26 22:50:00,
2015-03-26 18:55:00,42.4,41.3,29.57,WNW,289,0.0,0.0,96,0.00,,---,0.27,VWS V14.01,2015-03-26 22:55:00,
2015-03-26 19:00:00,42.3,41.2,29.57,WNW,289,0.0,0.0,96,0.00,,---,0.27,VWS V14.01,2015-03-26 23:00:00,
2015-03-26 19:01:00,42.2,41.4,29.57,WNW,289,0.0,0.0,97,0.02,,---,0.29,VWS V14.01,2015-03-26 23:01:00,
2015-03-26 19:02:00,42.2,41.4,29.57,WNW,289,0.0,0.0,97,0.02,,---,0.29,VWS V14.01,2015-03-26 23:02:00,
2015-03-26 19:03:00,42.2,41.4,29.58,WNW,288,0.0,0.0,97,0.02,,---,0.29,VWS V14.01,2015-03-26 23:03:00,
2015-03-26 19:04:00,42.2,41.4,29.58,WNW,289,0.0,0.0,97,0.02,,---,0.29,VWS V14.01,2015-03-26 23:04:00,
2015-03-26 19:05:00,41.9,40.8,29.56,WNW,288,0.0,0.0,96,0.00,,---,0.27,VWS V14.01,2015-03-26 23:05:00,
2015-03-26 19:10:00,41.8,40.8,29.56,WNW,289,0.0,0.0,96,0.00,,---,0.27,VWS V14.01,2015-03-26 23:10:00,
2015-03-26 19:15:00,41.9,41.1,29.56,WNW,289,0.0,0.0,97,0.00,,---,0.27,VWS V14.01,2015-03-26 23:15:00,
2015-03-26 19:20:00,42.1,41.3,29.56,WNW,289,0.0,0.0,97,0.01,,---,0.28,VWS V14.01,2015-03-26 23:20:00,
2015-03-26 19:25:00,42.1,41.0,29.56,WNW,289,0.0,0.0,96,0.01,,---,0.28,VWS V14.01,2015-03-26 23:25:00,
2015-03-26 19:30:00,42.0,41.2,29.56,WNW,288,0.0,0.0,97,0.01,,---,0.28,VWS V14.01,2015-03-26 23:30:00,
2015-03-26 19:35:00,42.0,41.2,29.56,WNW,289,0.0,0.0,97,0.01,,---,0.28,VWS V14.01,2015-03-26 23:35:00,
2015-03-26 19:40:00,42.0,41.2,29.56,WNW,289,0.0,0.0,97,0.01,,---,0.28,VWS V14.01,2015-03-26 23:40:00,
2015-03-26 19:45:00,42.1,41.3,29.57,WNW,289,0.0,0.0,97,0.01,,---,0.28,VWS V14.01,2015-03-26 23:45:00,
2015-03-26 19:50:00,42.0,41.2,29.57,WNW,288,0.0,0.0,97,0.01,,---,0.28,VWS V14.01,2015-03-26 23:50:00,
2015-03-26 19:55:00,42.2,41.4,29.57,WNW,288,0.0,0.0,97,0.01,,---,0.28,VWS V14.01,2015-03-26 23:55:00,
2015-03-26 20:00:00,42.2,41.4,29.58,WNW,289,0.0,0.0,97,0.01,,---,0.28,VWS V14.01,2015-03-27 00:00:00,
2015-03-26 20:05:00,42.2,41.4,29.58,WNW,289,0.0,0.0,97,0.02,,---,0.29,VWS V14.01,2015-03-27 00:05:00,
2015-03-26 20:10:00,42.1,41.3,29.58,WNW,288,0.0,0.0,97,0.03,,---,0.30,VWS V14.01,2015-03-27 00:10:00,
2015-03-26 20:15:00,42.1,41.3,29.58,WNW,289,0.0,0.0,97,0.03,,---,0.30,VWS V14.01,2015-03-27 00:15:00,
2015-03-26 20:20:00,42.2,41.4,29.58,WNW,289,0.0,0.0,97,0.02,,---,0.30,VWS V14.01,2015-03-27 00:20:00,
2015-03-26 20:25:00,42.3,41.5,29.58,WNW,289,0.0,0.0,97,0.02,,---,0.30,VWS V14.01,2015-03-27 00:25:00,
2015-03-26 20:30:00,42.2,41.4,29.58,WNW,289,0.0,0.0,97,0.03,,---,0.31,VWS V14.01,2015-03-27 00:30:00,
2015-03-26 20:35:00,42.1,41.3,29.58,WNW,288,0.0,0.0,97,0.03,,---,0.31,VWS V14.01,2015-03-27 00:35:00,
2015-03-26 20:40:00,42.1,41.3,29.59,WNW,289,0.0,0.0,97,0.03,,---,0.31,VWS V14.01,2015-03-27 00:40:00,
2015-03-26 20:45:00,42.0,41.2,29.59,WNW,289,0.0,0.0,97,0.04,,---,0.32,VWS V14.01,2015-03-27 00:45:00,
2015-03-26 20:50:00,41.8,41.0,29.59,WNW,289,0.0,0.0,97,0.04,,---,0.32,VWS V14.01,2015-03-27 00:50:00,
2015-03-26 20:55:00,41.7,40.9,29.60,WNW,289,0.0,1.0,97,0.04,,---,0.32,VWS V14.01,2015-03-27 00:55:00,
2015-03-26 21:00:00,41.8,41.0,29.59,WNW,288,0.0,0.0,97,0.04,,---,0.32,VWS V14.01,2015-03-27 01:00:00,
2015-03-26 21:05:00,41.7,40.9,29.58,WNW,289,0.0,0.0,97,0.03,,---,0.32,VWS V14.01,2015-03-27 01:05:00,
2015-03-26 21:10:00,41.6,40.8,29.59,WNW,289,0.0,0.0,97,0.02,,---,0.32,VWS V14.01,2015-03-27 01:10:00,
2015-03-26 21:12:00,41.5,40.7,29.59,SSE,165,0.0,0.0,97,0.02,,---,0.34,VWS V14.01,2015-03-27 01:12:00,
2015-03-26 21:13:00,41.5,40.7,29.59,SSE,166,0.0,0.0,97,0.02,,---,0.34,VWS V14.01,2015-03-27 01:13:00,
2015-03-26 21:14:00,41.5,40.7,29.58,SSE,165,0.0,0.0,97,0.02,,---,0.34,VWS V14.01,2015-03-27 01:14:00,
2015-03-26 21:15:00,41.6,40.8,29.59,WNW,288,0.0,0.0,97,0.02,,---,0.32,VWS V14.01,2015-03-27 01:15:00,
2015-03-26 21:16:00,41.5,40.7,29.59,SSE,166,0.0,0.0,97,0.02,,---,0.34,VWS V14.01,2015-03-27 01:16:00,
2015-03-26 21:17:00,41.5,40.7,29.59,SSE,166,0.0,0.0,97,0.02,,---,0.34,VWS V14.01,2015-03-27 01:17:00,
2015-03-26 21:18:00,41.4,40.6,29.58,SSE,166,0.0,0.0,97,0.02,,---,0.34,VWS V14.01,2015-03-27 01:18:00,
2015-03-26 21:20:00,41.4,40.6,29.59,WNW,288,0.0,0.0,97,0.02,,---,0.32,VWS V14.01,2015-03-27 01:20:00,
2015-03-26 21:25:00,41.6,40.8,29.59,WNW,289,0.0,1.0,97,0.02,,---,0.32,VWS V14.01,2015-03-27 01:25:00,
2015-03-26 21:30:00,41.9,41.1,29.60,WNW,289,0.0,0.0,97,0.02,,---,0.32,VWS V14.01,2015-03-27 01:30:00,
2015-03-26 21:35:00,42.2,41.4,29.60,WNW,286,0.0,1.0,97,0.01,,---,0.32,VWS V14.01,2015-03-27 01:35:00,
2015-03-26 21:40:00,42.3,41.5,29.60,WNW,286,0.0,0.0,97,0.02,,---,0.33,VWS V14.01,2015-03-27 01:40:00,
2015-03-26 21:45:00,42.3,41.5,29.59,WNW,286,0.0,0.0,97,0.01,,---,0.33,VWS V14.01,2015-03-27 01:45:00,
2015-03-26 21:50:00,42.2,41.4,29.59,WNW,286,0.0,0.0,97,0.02,,---,0.34,VWS V14.01,2015-03-27 01:50:00,
2015-03-26 21:55:00,42.0,41.2,29.58,WNW,286,0.0,0.0,97,0.02,,---,0.34,VWS V14.01,2015-03-27 01:55:00,
2015-03-26 22:00:00,41.7,40.9,29.58,WNW,286,0.0,1.0,97,0.02,,---,0.34,VWS V14.01,2015-03-27 02:00:00,
2015-03-26 22:05:00,41.7,40.9,29.58,SE,145,0.0,0.0,97,0.02,,---,0.34,VWS V14.01,2015-03-27 02:05:00,
2015-03-26 22:10:00,41.5,40.7,29.58,SE,145,0.0,0.0,97,0.02,,---,0.34,VWS V14.01,2015-03-27 02:10:00,
2015-03-26 22:15:00,41.5,40.7,29.58,SSE,166,0.0,0.0,97,0.02,,---,0.34,VWS V14.01,2015-03-27 02:15:00,
2015-03-26 22:20:00,41.4,40.6,29.58,SSE,165,0.0,0.0,97,0.02,,---,0.34,VWS V14.01,2015-03-27 02:20:00,
2015-03-26 22:25:00,41.2,40.4,29.59,WSW,241,0.0,0.0,97,0.02,,---,0.34,VWS V14.01,2015-03-27 02:25:00,